createdAt,value
2018-05-10T00:01:43.702Z,59.50
2018-05-10T00:04:11.386Z,59.00
2018-05-10T00:06:38.910Z,58.70
2018-05-10T00:09:07.261Z,58.70
2018-05-10T00:11:34.850Z,58.50
2018-05-10T00:14:03.211Z,58.50
2018-05-10T00:16:30.745Z,58.50
2018-05-10T00:18:58.329Z,58.20
2018-05-10T00:21:25.969Z,58.40
2018-05-10T00:23:53.513Z,58.10
2018-05-10T00:26:21.183Z,58.00
2018-05-10T00:28:48.746Z,58.10
2018-05-10T00:31:16.365Z,58.30
2018-05-10T00:33:43.922Z,58.10
2018-05-10T00:36:11.610Z,58.10
2018-05-10T00:38:39.244Z,58.10
2018-05-10T00:41:07.555Z,58.30
2018-05-10T00:43:35.149Z,58.30
2018-05-10T00:46:02.856Z,58.40
2018-05-10T00:48:30.520Z,58.20
2018-05-10T00:50:58.071Z,58.10
2018-05-10T00:53:26.403Z,58.20
2018-05-10T00:55:53.991Z,58.20
2018-05-10T00:58:21.544Z,58.80
2018-05-10T01:00:49.988Z,58.60
2018-05-10T01:03:17.542Z,58.50
2018-05-10T01:05:45.127Z,58.50
2018-05-10T01:08:12.729Z,58.40
2018-05-10T01:10:40.329Z,58.50
2018-05-10T01:13:07.957Z,58.60
2018-05-10T01:15:36.268Z,59.00
2018-05-10T01:18:03.842Z,58.80
2018-05-10T01:20:31.435Z,59.20
2018-05-10T01:22:59.781Z,59.40
2018-05-10T01:25:27.355Z,59.20
2018-05-10T01:27:54.906Z,59.50
2018-05-10T01:30:22.497Z,59.50
2018-05-10T01:32:50.118Z,59.40
2018-05-10T01:35:29.384Z,59.60
2018-05-10T01:37:56.973Z,59.70
2018-05-10T01:40:24.513Z,59.70
2018-05-10T01:42:52.907Z,59.80
2018-05-10T01:45:21.226Z,60.00
2018-05-10T01:47:48.880Z,60.00
2018-05-10T01:50:16.515Z,59.70
2018-05-10T01:52:45.217Z,60.00
2018-05-10T01:55:12.843Z,60.00
2018-05-10T01:57:40.417Z,60.10
2018-05-10T02:00:08.028Z,60.00
2018-05-10T02:02:35.575Z,59.90
2018-05-10T02:05:03.267Z,59.90
2018-05-10T02:07:30.829Z,60.00
2018-05-10T02:09:58.400Z,59.80
2018-05-10T02:12:25.993Z,60.00
2018-05-10T02:14:53.660Z,60.00
2018-05-10T02:17:21.246Z,60.00
2018-05-10T02:19:48.805Z,59.80
2018-05-10T02:22:16.360Z,59.60
2018-05-10T02:24:44.024Z,59.80
2018-05-10T02:27:11.632Z,59.70
2018-05-10T02:29:39.978Z,60.40
2018-05-10T02:32:07.553Z,59.70
2018-05-10T02:34:36.677Z,59.40
2018-05-10T02:37:05.079Z,59.70
2018-05-10T02:39:32.644Z,59.60
2018-05-10T02:42:00.323Z,59.50
2018-05-10T02:44:27.862Z,59.60
2018-05-10T02:46:55.460Z,59.50
2018-05-10T02:49:23.061Z,59.50
2018-05-10T02:51:51.454Z,59.30
2018-05-10T02:54:19.123Z,59.30
2018-05-10T02:56:46.693Z,59.30
2018-05-10T02:59:14.350Z,59.60
2018-05-10T03:01:41.889Z,59.80
2018-05-10T03:04:10.250Z,60.10
2018-05-10T03:06:37.829Z,60.00
2018-05-10T03:09:06.227Z,60.10
2018-05-10T03:11:33.921Z,60.10
2018-05-10T03:14:01.481Z,60.10
2018-05-10T03:16:29.047Z,60.00
2018-05-10T03:18:57.359Z,60.00
2018-05-10T03:21:25.712Z,59.90
2018-05-10T03:23:53.309Z,59.90
2018-05-10T03:26:21.699Z,59.90
2018-05-10T03:28:49.369Z,59.80
2018-05-10T03:31:16.924Z,59.70
2018-05-10T03:33:44.528Z,59.60
2018-05-10T03:36:12.190Z,59.70
2018-05-10T03:38:39.777Z,59.60
2018-05-10T03:41:07.389Z,59.60
2018-05-10T03:43:35.011Z,59.70
2018-05-10T03:46:02.664Z,59.70
2018-05-10T03:48:30.226Z,59.70
2018-05-10T03:50:59.353Z,59.80
2018-05-10T03:53:27.729Z,59.80
2018-05-10T03:55:56.066Z,59.90
2018-05-10T03:58:23.768Z,59.90
2018-05-10T04:00:52.124Z,60.20
2018-05-10T04:03:32.212Z,60.10
2018-05-10T04:09:12.226Z,59.70
2018-05-10T04:11:40.557Z,59.80
2018-05-10T04:14:08.928Z,59.80
2018-05-10T04:16:37.290Z,59.60
2018-05-10T04:19:05.683Z,59.90
2018-05-10T04:21:33.246Z,59.80
2018-05-10T04:24:01.675Z,59.60
2018-05-10T04:26:29.215Z,59.60
2018-05-10T04:28:56.967Z,59.60
2018-05-10T04:31:25.514Z,59.50
2018-05-10T04:33:53.204Z,59.30
2018-05-10T04:36:20.928Z,59.20
2018-05-10T04:38:48.482Z,59.10
2018-05-10T04:41:16.146Z,59.10
2018-05-10T04:43:43.695Z,59.20
2018-05-10T04:46:11.419Z,59.00
2018-05-10T04:48:39.749Z,58.70
2018-05-10T04:51:07.359Z,58.70
2018-05-10T04:53:35.042Z,58.60
2018-05-10T04:56:02.689Z,58.40
2018-05-10T04:58:30.997Z,57.90
2018-05-10T05:00:58.925Z,57.80
2018-05-10T05:03:26.484Z,57.30
2018-05-10T05:05:54.166Z,57.20
2018-05-10T05:08:21.825Z,57.00
2018-05-10T05:10:49.376Z,56.80
2018-05-10T05:13:17.044Z,56.40
2018-05-10T05:15:44.908Z,56.30
2018-05-10T05:18:13.263Z,55.50
2018-05-10T05:20:41.588Z,55.00
2018-05-10T05:23:09.177Z,54.90
2018-05-10T05:25:36.750Z,54.70
2018-05-10T05:28:05.153Z,54.40
2018-05-10T05:30:32.717Z,54.30
2018-05-10T05:33:00.400Z,54.00
2018-05-10T05:35:28.039Z,54.00
2018-05-10T05:37:56.327Z,53.60
2018-05-10T05:40:23.893Z,53.60
2018-05-10T05:42:51.448Z,53.50
2018-05-10T05:45:19.034Z,53.10
2018-05-10T05:47:46.589Z,52.70
2018-05-10T05:50:14.170Z,52.90
2018-05-10T05:52:41.787Z,52.50
2018-05-10T05:55:09.375Z,52.30
2018-05-10T05:57:36.947Z,52.20
2018-05-10T06:00:04.603Z,52.20
2018-05-10T06:02:32.178Z,51.40
2018-05-10T06:04:59.738Z,51.20
2018-05-10T06:07:27.601Z,51.40
2018-05-10T06:09:55.215Z,50.90
2018-05-10T06:12:22.765Z,51.00
2018-05-10T06:14:51.115Z,50.20
2018-05-10T06:17:19.477Z,50.70
2018-05-10T06:19:47.213Z,50.50
2018-05-10T06:22:14.752Z,49.50
2018-05-10T06:24:42.382Z,49.40
2018-05-10T06:27:10.288Z,48.60
2018-05-10T06:29:38.594Z,46.10
2018-05-10T06:32:06.216Z,46.10
2018-05-10T06:34:33.867Z,44.80
2018-05-10T06:37:01.415Z,43.00
2018-05-10T06:39:29.728Z,40.20
2018-05-10T06:41:57.296Z,40.10
2018-05-10T06:44:24.894Z,39.20
2018-05-10T06:46:52.494Z,38.10
2018-05-10T06:49:20.035Z,38.60
2018-05-10T06:51:48.379Z,37.10
2018-05-10T06:54:16.039Z,37.10
2018-05-10T06:56:43.570Z,37.40
2018-05-10T06:59:11.103Z,37.20
2018-05-10T07:01:38.692Z,38.20
2018-05-10T07:04:06.296Z,38.60
2018-05-10T07:06:33.864Z,38.20
2018-05-10T07:09:02.184Z,39.20
2018-05-10T07:11:29.760Z,39.10
2018-05-10T07:13:57.445Z,39.00
2018-05-10T07:16:24.991Z,38.50
2018-05-10T07:18:52.573Z,38.70
2018-05-10T07:21:20.283Z,38.60
2018-05-10T07:23:47.820Z,38.30
2018-05-10T07:26:15.484Z,39.20
2018-05-10T07:28:43.047Z,39.00
2018-05-10T07:31:10.644Z,39.80
2018-05-10T07:33:38.207Z,39.90
2018-05-10T07:36:05.769Z,39.80
2018-05-10T07:38:33.330Z,40.10
2018-05-10T07:41:00.902Z,40.90
2018-05-10T07:43:28.494Z,40.60
2018-05-10T07:45:56.862Z,39.60
2018-05-10T07:48:25.316Z,39.50
2018-05-10T07:50:52.946Z,39.50
2018-05-10T07:53:20.512Z,39.30
2018-05-10T07:55:48.088Z,38.60
2018-05-10T07:58:15.736Z,38.40
2018-05-10T08:00:43.332Z,37.50
2018-05-10T08:03:11.647Z,35.70
2018-05-10T08:05:39.372Z,35.80
2018-05-10T08:08:07.752Z,37.10
2018-05-10T08:10:35.406Z,37.00
2018-05-10T08:13:02.989Z,35.60
2018-05-10T08:15:31.311Z,33.50
2018-05-10T08:17:58.889Z,33.40
2018-05-10T08:20:26.579Z,31.90
2018-05-10T08:22:54.150Z,30.50
2018-05-10T08:25:22.528Z,30.60
2018-05-10T08:27:50.986Z,32.00
2018-05-10T08:30:18.655Z,32.00
2018-05-10T08:32:46.163Z,32.90
2018-05-10T08:35:14.443Z,34.60
2018-05-10T08:37:42.054Z,35.20
2018-05-10T08:40:09.703Z,36.30
2018-05-10T08:42:37.345Z,36.80
2018-05-10T08:45:05.091Z,37.10
2018-05-10T08:47:32.762Z,37.60
2018-05-10T08:50:00.455Z,37.30
2018-05-10T08:52:28.031Z,37.50
2018-05-10T08:57:48.575Z,37.60
2018-05-10T09:00:17.184Z,38.20
2018-05-10T09:02:44.789Z,38.20
2018-05-10T09:05:12.438Z,37.80
2018-05-10T09:07:40.098Z,37.50
2018-05-10T09:10:07.772Z,37.40
2018-05-10T09:12:35.385Z,37.40
2018-05-10T09:15:02.941Z,36.60
2018-05-10T09:17:31.384Z,36.50
2018-05-10T09:19:59.089Z,36.50
2018-05-10T09:22:26.677Z,35.40
2018-05-10T09:24:54.361Z,34.70
2018-05-10T09:27:22.048Z,34.60
2018-05-10T09:29:49.640Z,33.70
2018-05-10T09:32:17.335Z,33.10
2018-05-10T09:34:44.915Z,33.60
2018-05-10T09:37:13.313Z,32.20
2018-05-10T09:39:40.907Z,32.00
2018-05-10T09:42:08.443Z,31.00
2018-05-10T09:44:36.032Z,29.20
2018-05-10T09:47:03.683Z,27.80
2018-05-10T09:49:31.280Z,26.30
2018-05-10T09:51:58.827Z,24.90
2018-05-10T09:54:27.008Z,24.30
2018-05-10T09:56:54.612Z,24.10
2018-05-10T09:59:22.218Z,23.60
2018-05-10T10:01:50.558Z,23.50
2018-05-10T10:04:18.133Z,23.40
2018-05-10T10:06:45.713Z,23.70
2018-05-10T10:09:14.096Z,22.90
2018-05-10T10:11:41.739Z,22.90
2018-05-10T10:14:09.417Z,22.90
2018-05-10T10:16:37.040Z,22.80
2018-05-10T10:19:04.939Z,23.40
2018-05-10T10:21:33.632Z,23.50
2018-05-10T10:24:01.183Z,23.50
2018-05-10T10:26:28.743Z,23.50
2018-05-10T10:28:56.437Z,23.90
2018-05-10T10:31:24.023Z,23.90
2018-05-10T10:33:51.665Z,23.60
2018-05-10T10:36:19.273Z,23.20
2018-05-10T10:38:46.955Z,22.50
2018-05-10T10:41:14.661Z,22.90
2018-05-10T10:43:42.234Z,22.80
2018-05-10T10:46:10.683Z,23.10
2018-05-10T10:48:39.029Z,24.50
2018-05-10T10:51:06.775Z,24.40
2018-05-10T10:53:35.240Z,25.50
2018-05-10T10:56:02.878Z,25.40
2018-05-10T10:58:30.609Z,25.30
2018-05-10T11:00:58.269Z,25.20
2018-05-10T11:03:26.582Z,25.30
2018-05-10T11:05:54.203Z,24.90
2018-05-10T11:08:21.773Z,25.50
2018-05-10T11:10:50.130Z,28.10
2018-05-10T11:13:17.690Z,28.10
2018-05-10T11:15:45.286Z,28.90
2018-05-10T11:18:12.901Z,29.70
2018-05-10T11:20:41.436Z,31.20
2018-05-10T11:23:09.012Z,31.20
2018-05-10T11:25:36.554Z,31.60
2018-05-10T11:28:04.166Z,32.60
2018-05-10T11:30:31.761Z,33.20
2018-05-10T11:33:00.162Z,34.10
2018-05-10T11:35:27.675Z,35.30
2018-05-10T11:37:56.205Z,34.60
2018-05-10T11:40:23.840Z,34.50
2018-05-10T11:42:52.156Z,36.30
2018-05-10T11:45:19.836Z,36.40
2018-05-10T11:47:47.452Z,36.80
2018-05-10T11:50:14.990Z,36.10
2018-05-10T11:52:42.672Z,35.40
2018-05-10T11:55:10.243Z,36.70
2018-05-10T11:57:37.812Z,36.60
2018-05-10T12:00:05.525Z,35.70
2018-05-10T12:02:33.135Z,36.00
2018-05-10T12:05:00.702Z,35.10
2018-05-10T12:07:28.264Z,35.60
2018-05-10T12:09:57.337Z,37.00
2018-05-10T12:12:25.845Z,37.40
2018-05-10T12:14:53.438Z,37.40
2018-05-10T12:17:21.001Z,36.30
2018-05-10T12:19:49.472Z,36.90
2018-05-10T12:22:17.133Z,36.40
2018-05-10T12:24:44.747Z,37.30
2018-05-10T12:27:13.742Z,38.30
2018-05-10T12:29:41.445Z,38.30
2018-05-10T12:32:08.987Z,38.10
2018-05-10T12:34:36.843Z,37.90
2018-05-10T12:37:04.438Z,38.40
2018-05-10T12:39:31.999Z,37.70
2018-05-10T12:41:59.555Z,37.60
2018-05-10T12:44:27.172Z,37.30
2018-05-10T12:46:55.749Z,38.20
2018-05-10T12:49:23.396Z,38.10
2018-05-10T12:51:51.042Z,38.70
2018-05-10T12:54:19.713Z,37.60
2018-05-10T12:56:47.325Z,37.60
2018-05-10T12:59:16.224Z,38.10
2018-05-10T13:01:44.925Z,38.40
2018-05-10T13:04:12.618Z,38.40
2018-05-10T13:06:40.159Z,38.40
2018-05-10T13:09:08.532Z,38.50
2018-05-10T13:11:36.067Z,38.30
2018-05-10T13:14:03.672Z,38.10
2018-05-10T13:16:31.252Z,37.60
2018-05-10T13:18:58.806Z,37.60
2018-05-10T13:21:27.520Z,37.80
2018-05-10T13:23:55.062Z,37.70
2018-05-10T13:26:22.634Z,37.60
2018-05-10T13:28:50.277Z,37.70
2018-05-10T13:31:17.852Z,38.30
2018-05-10T13:33:45.429Z,38.30
2018-05-10T13:36:13.020Z,37.50
2018-05-10T13:38:40.603Z,37.70
2018-05-10T13:41:08.980Z,38.30
2018-05-10T13:43:36.616Z,38.30
2018-05-10T13:46:04.924Z,40.00
2018-05-10T13:48:32.534Z,40.00
2018-05-10T13:51:00.087Z,40.00
2018-05-10T13:53:27.679Z,40.20
2018-05-10T13:55:55.270Z,38.20
2018-05-10T13:58:23.605Z,37.90
2018-05-10T14:00:51.162Z,37.80
2018-05-10T14:03:19.616Z,38.40
2018-05-10T14:05:47.937Z,38.60
2018-05-10T14:08:15.592Z,38.60
2018-05-10T14:10:43.174Z,39.00
2018-05-10T14:13:11.414Z,39.20
2018-05-10T14:15:39.066Z,39.40
2018-05-10T14:18:06.747Z,39.70
2018-05-10T14:20:34.320Z,40.30
2018-05-10T14:23:02.681Z,41.40
2018-05-10T14:25:30.484Z,41.40
2018-05-10T14:27:58.092Z,41.50
2018-05-10T14:30:26.291Z,41.60
2018-05-10T14:32:53.917Z,41.30
2018-05-10T14:35:21.497Z,40.60
2018-05-10T14:37:49.847Z,39.00
2018-05-10T14:40:18.176Z,39.20
2018-05-10T14:42:46.526Z,39.40
2018-05-10T14:45:14.983Z,39.20
2018-05-10T14:47:43.353Z,38.70
2018-05-10T14:50:10.893Z,38.60
2018-05-10T14:52:38.499Z,38.30
2018-05-10T14:55:06.076Z,38.60
2018-05-10T14:57:33.771Z,39.10
2018-05-10T15:00:01.389Z,38.70
2018-05-10T15:02:29.269Z,38.80
2018-05-10T15:04:57.182Z,38.70
2018-05-10T15:07:25.584Z,38.80
2018-05-10T15:09:53.228Z,38.80
2018-05-10T15:12:20.762Z,39.30
2018-05-10T15:14:49.099Z,39.60
2018-05-10T15:17:16.658Z,39.60
2018-05-10T15:19:44.225Z,40.10
2018-05-10T15:22:11.766Z,39.90
2018-05-10T15:24:39.301Z,40.00
2018-05-10T15:27:06.913Z,40.00
2018-05-10T15:29:34.526Z,40.10
2018-05-10T15:32:02.111Z,39.70
2018-05-10T15:34:29.790Z,39.90
2018-05-10T15:36:58.309Z,40.00
2018-05-10T15:39:26.530Z,39.80
2018-05-10T15:41:54.180Z,39.60
2018-05-10T15:44:21.725Z,40.00
2018-05-10T15:46:49.397Z,40.20
2018-05-10T15:49:17.172Z,40.20
2018-05-10T15:51:45.106Z,40.70
2018-05-10T15:54:12.802Z,40.90
2018-05-10T15:56:40.585Z,41.10
2018-05-10T15:59:08.201Z,41.50
2018-05-10T16:01:35.977Z,41.40
2018-05-10T16:04:04.331Z,41.60
2018-05-10T16:06:32.668Z,41.80
2018-05-10T16:09:01.417Z,41.60
2018-05-10T16:11:29.078Z,41.60
2018-05-10T16:13:56.724Z,41.40
2018-05-10T16:16:24.264Z,41.20
2018-05-10T16:18:51.813Z,40.90
2018-05-10T16:21:19.587Z,40.90
2018-05-10T16:23:47.158Z,40.60
2018-05-10T16:26:14.800Z,40.80
2018-05-10T16:28:42.512Z,41.40
2018-05-10T16:31:10.090Z,41.60
2018-05-10T16:33:37.750Z,41.90
2018-05-10T16:36:05.312Z,42.00
2018-05-10T16:38:33.646Z,43.00
2018-05-10T16:41:02.061Z,43.50
2018-05-10T16:43:29.619Z,43.50
2018-05-10T16:45:57.237Z,44.00
2018-05-10T16:48:24.826Z,44.20
2018-05-10T16:50:52.411Z,44.80
2018-05-10T16:53:20.100Z,45.00
2018-05-10T16:55:47.612Z,45.60
2018-05-10T16:58:15.148Z,46.10
2018-05-10T17:00:42.805Z,46.40
2018-05-10T17:03:10.355Z,46.60
2018-05-10T17:05:37.894Z,46.70
2018-05-10T17:08:05.470Z,46.70
2018-05-10T17:10:33.105Z,46.90
2018-05-10T17:13:01.440Z,47.10
2018-05-10T17:15:29.162Z,47.10
2018-05-10T17:17:56.816Z,47.20
2018-05-10T17:20:24.433Z,47.30
2018-05-10T17:22:52.024Z,47.40
2018-05-10T17:25:19.575Z,48.10
2018-05-10T17:27:48.318Z,48.70
2018-05-10T17:30:15.892Z,48.50
2018-05-10T17:32:43.472Z,48.90
2018-05-10T17:35:11.069Z,49.10
2018-05-10T17:37:38.616Z,49.40
2018-05-10T17:40:06.239Z,49.60
2018-05-10T17:42:33.807Z,50.10
2018-05-10T17:45:01.369Z,50.50
2018-05-10T17:47:28.941Z,50.80
2018-05-10T17:49:56.525Z,51.30
2018-05-10T17:52:24.111Z,51.50
2018-05-10T17:54:51.698Z,52.00
2018-05-10T17:57:20.050Z,52.20
2018-05-10T17:59:47.612Z,52.20
2018-05-10T18:02:16.801Z,52.80
2018-05-10T18:04:44.391Z,52.80
2018-05-10T18:07:12.096Z,53.20
2018-05-10T18:09:39.734Z,53.30
2018-05-10T18:12:07.287Z,53.50
2018-05-10T18:14:34.833Z,53.40
2018-05-10T18:17:02.522Z,53.70
2018-05-10T18:19:30.066Z,53.80
2018-05-10T18:21:57.702Z,54.10
2018-05-10T18:24:25.374Z,54.00
2018-05-10T18:26:53.395Z,54.20
2018-05-10T18:29:21.036Z,54.40
2018-05-10T18:31:48.619Z,54.90
2018-05-10T18:34:16.201Z,55.10
2018-05-10T18:36:43.772Z,55.50
2018-05-10T18:39:12.276Z,56.00
2018-05-10T18:41:39.866Z,56.10
2018-05-10T18:44:07.782Z,56.10
2018-05-10T18:46:35.495Z,56.30
2018-05-10T18:49:03.071Z,56.50
2018-05-10T18:51:31.433Z,57.00
2018-05-10T18:53:59.733Z,57.50
2018-05-10T18:56:27.283Z,58.00
2018-05-10T18:58:54.881Z,57.70
2018-05-10T19:01:23.329Z,58.40
2018-05-10T19:03:50.905Z,58.30
2018-05-10T19:06:18.600Z,59.30
2018-05-10T19:08:46.169Z,61.40
2018-05-10T19:11:14.506Z,64.70
2018-05-10T19:13:41.435Z,64.70
2018-05-10T19:19:03.082Z,67.30
2018-05-10T19:21:31.501Z,68.40
2018-05-10T19:23:59.258Z,68.30
2018-05-10T19:26:28.470Z,69.10
2018-05-10T19:28:57.318Z,69.20
2018-05-10T19:31:24.860Z,68.20
2018-05-10T19:33:52.424Z,67.50
2018-05-10T19:36:20.776Z,64.60
2018-05-10T19:38:48.329Z,64.70
2018-05-10T19:41:16.679Z,65.20
2018-05-10T19:43:44.223Z,65.20
2018-05-10T19:46:12.633Z,66.60
2018-05-10T19:48:40.194Z,66.70
2018-05-10T19:51:08.307Z,66.50
2018-05-10T19:53:35.913Z,66.60
2018-05-10T19:56:03.543Z,66.50
2018-05-10T19:58:31.122Z,66.60
2018-05-10T20:00:58.668Z,66.90
2018-05-10T20:03:28.115Z,66.20
2018-05-10T20:05:55.650Z,66.30
2018-05-10T20:08:23.234Z,66.30
2018-05-10T20:10:50.825Z,66.70
2018-05-10T20:13:18.401Z,67.70
2018-05-10T20:15:46.751Z,70.00
2018-05-10T20:18:14.298Z,69.90
2018-05-10T20:20:41.886Z,70.40
2018-05-10T20:23:10.227Z,71.70
2018-05-10T20:25:38.052Z,71.50
2018-05-10T20:28:05.673Z,72.30
2018-05-10T20:30:33.239Z,72.20
2018-05-10T20:33:00.834Z,72.50
2018-05-10T20:35:28.401Z,73.30
2018-05-10T20:37:55.977Z,73.90
2018-05-10T20:40:24.323Z,73.00
2018-05-10T20:42:51.880Z,73.00
2018-05-10T20:45:19.458Z,72.50
2018-05-10T20:47:47.043Z,72.70
2018-05-10T20:50:14.609Z,72.60
2018-05-10T20:52:42.178Z,72.60
2018-05-10T20:55:09.782Z,73.10
2018-05-10T20:57:37.374Z,73.10
2018-05-10T21:00:05.059Z,72.80
2018-05-10T21:02:32.591Z,73.80
2018-05-10T21:05:00.940Z,73.80
2018-05-10T21:07:28.493Z,73.80
2018-05-10T21:09:56.673Z,73.50
2018-05-10T21:12:35.862Z,73.30
2018-05-10T21:15:03.423Z,72.80
2018-05-10T21:17:31.027Z,73.20
2018-05-10T21:19:58.569Z,72.60
2018-05-10T21:22:26.134Z,72.90
2018-05-10T21:24:53.723Z,72.90
2018-05-10T21:27:22.080Z,72.40
2018-05-10T21:29:50.108Z,72.30
2018-05-10T21:32:17.689Z,72.40
2018-05-10T21:34:45.231Z,71.30
2018-05-10T21:37:12.795Z,71.20
2018-05-10T21:39:41.113Z,70.30
2018-05-10T21:42:09.479Z,69.40
2018-05-10T21:44:37.061Z,69.30
2018-05-10T21:47:05.413Z,69.00
2018-05-10T21:49:44.665Z,69.00
2018-05-10T21:52:12.238Z,69.10
2018-05-10T21:54:40.724Z,69.10
2018-05-10T21:57:08.474Z,69.10
2018-05-10T21:59:36.017Z,68.70
2018-05-10T22:02:04.335Z,68.90
2018-05-10T22:04:32.679Z,68.80
2018-05-10T22:07:00.232Z,68.80
2018-05-10T22:09:27.837Z,68.60
2018-05-10T22:11:56.169Z,69.20
2018-05-10T22:14:24.507Z,69.40
2018-05-10T22:16:52.074Z,69.20
2018-05-10T22:19:20.413Z,68.70
2018-05-10T22:21:47.975Z,68.70
2018-05-10T22:24:16.348Z,69.80
2018-05-10T22:26:43.903Z,69.90
2018-05-10T22:29:12.306Z,71.50
2018-05-10T22:31:40.609Z,71.20
2018-05-10T22:34:09.023Z,71.50
2018-05-10T22:36:37.350Z,71.10
2018-05-10T22:39:05.698Z,71.50
2018-05-10T22:41:33.261Z,71.40
2018-05-10T22:44:01.578Z,72.50
2018-05-10T22:46:29.927Z,72.50
2018-05-10T22:48:58.238Z,72.70
2018-05-10T22:51:26.499Z,72.60
2018-05-10T22:53:54.033Z,73.40
2018-05-10T22:56:22.348Z,73.90
2018-05-10T22:58:50.695Z,73.90
2018-05-10T23:01:18.278Z,74.00
2018-05-10T23:03:45.950Z,74.40
2018-05-10T23:06:13.507Z,74.00
2018-05-10T23:08:41.890Z,75.40
2018-05-10T23:11:10.325Z,76.30
2018-05-10T23:13:38.673Z,76.80
2018-05-10T23:16:07.038Z,76.90
2018-05-10T23:18:34.651Z,76.90
2018-05-10T23:21:02.293Z,77.50
2018-05-10T23:23:29.877Z,77.50
2018-05-10T23:25:57.451Z,78.10
2018-05-10T23:28:25.014Z,78.50
2018-05-10T23:30:53.350Z,79.10
2018-05-10T23:33:20.924Z,79.10
2018-05-10T23:35:49.244Z,79.70
2018-05-10T23:38:16.813Z,79.70
2018-05-10T23:40:44.351Z,79.70
2018-05-10T23:43:11.943Z,80.30
2018-05-10T23:45:39.538Z,81.60
2018-05-10T23:48:08.128Z,80.80
2018-05-10T23:50:36.511Z,81.50
2018-05-10T23:53:04.100Z,81.50
2018-05-10T23:55:31.711Z,81.60
2018-05-10T23:58:00.076Z,82.10
